Terminal Aerodrome Forecast
Issued by NWS Jackson, MS

Home | Current Version | Previous Version | Text Only | Print | Product List | Glossary On
Versions: 1 2 3 4 5 6 7 8 9 10 11 12 13 14 15 16 17 18 19 20 21 22 23
000
FTUS44 KJAN 072333
TAFJAN
TAF
KJAN 072333Z 0800/0824 19008KT P6SM VCSH SCT040
     FM080100 17006KT P6SM FEW050 SCT250
     FM081000 16004KT P6SM BKN015
     FM081500 20010KT P6SM SCT020
     FM081800 20012G18KT P6SM SCT050=

USA.gov is the U.S. government's official web portal to all federal, state and local government web resources and services.